Latest Weather Observations for Halls Creek

IDW60801

Issued at 11:05 pm WST Saturday 22 November 2014 (issued every 30 minutes, with the page automatically refreshed every 10 minutes)

About weather observations | Map of weather stations | Latest weather observations for WA | Other Formats
Station Details ID: 002012 Name: HALLS CREEK AIRPORT Lat: -18.23 Lon: 127.66 Height: 422.0 m
Data from the previous 72 hours. | See also: Recent months at Halls Creek
Date/Time
WST
Temp
°C
App
Temp
°C
Dew
Point
Rel
Hum
%
Delta-T
°C
Wind Press
QNH
hPa
Press
MSL
hPa
Rain
since 9 am
mm
Dir
 
Spd
km/h
Gust
km/h
Spd
kts
Gust
kts
22/11:00pm 27.0 30.9 21.2 70 3.9 NNW 2 4 1 2 1012.3 - 0.0
22/10:30pm 27.0 31.0 21.4 71 3.8 NNW 2 4 1 2 1012.7 - 0.0
22/10:00pm 27.0 30.5 20.4 67 4.4 SE 2 2 1 1 1012.8 - 0.0
22/09:30pm 27.0 29.9 19.9 65 4.7 S 4 6 2 3 1012.9 - 0.0
22/09:00pm 26.8 30.5 20.7 69 4.1 WSW 2 4 1 2 1013.1 1009.6 0.0
22/08:30pm 27.0 31.1 20.7 68 4.2 CALM 0 2 0 1 1012.9 - 0.0
22/08:00pm 27.2 30.7 19.5 62 5.1 CALM 0 2 0 1 1012.7 - 0.0
22/07:30pm 27.8 30.6 18.8 58 5.9 N 2 4 1 2 1012.3 - 0.0
22/07:00pm 28.0 31.3 20.0 61 5.3 W 2 4 1 2 1011.7 - 0.0
22/06:30pm 29.2 30.6 17.4 49 7.6 WNW 6 11 3 6 1011.4 - 0.0
22/06:00pm 30.4 30.9 16.6 43 8.8 NW 9 19 5 10 1011.5 1008.0 0.0
22/05:30pm 31.6 33.6 17.0 41 9.4 SW 2 4 1 2 1010.8 - 0.0
22/05:00pm 32.8 33.7 15.2 34 11.1 E 4 7 2 4 1010.3 - 0.0
22/04:30pm 33.6 34.3 15.7 34 11.4 E 6 11 3 6 1009.8 - 0.0
22/04:00pm 33.3 35.3 17.9 40 10.1 ESE 4 9 2 5 1009.8 - 0.0
22/03:30pm 32.3 34.1 18.3 43 9.2 S 6 11 3 6 1009.7 - 0.0
22/03:00pm 32.6 34.2 17.0 39 10.1 S 4 9 2 5 1009.9 1006.5 0.0
22/02:30pm 32.5 35.3 18.8 44 9.1 SSE 2 7 1 4 1010.5 - 0.0
22/02:00pm 31.1 33.3 19.2 49 7.9 SSE 6 9 3 5 1011.1 - 0.0
22/01:30pm 30.6 33.0 18.9 49 7.7 ESE 4 7 2 4 1012.0 - 0.0
22/01:00pm 30.4 32.8 18.9 50 7.6 SE 4 6 2 3 1012.1 - 0.0
22/12:30pm 30.9 32.3 17.8 45 8.5 E 7 13 4 7 1012.1 - 0.0
22/12:00pm 32.7 33.3 15.7 36 10.8 ENE 7 11 4 6 1012.3 1008.9 0.0
22/11:30am 32.8 33.6 15.8 36 10.8 NNE 6 11 3 6 1012.7 - 0.0
22/11:00am 32.1 33.5 17.3 41 9.6 ENE 6 11 3 6 1013.1 - 0.0
22/10:30am 31.7 32.5 17.3 42 9.3 ENE 9 17 5 9 1013.4 - 0.0
22/10:00am 32.4 32.7 15.9 37 10.5 NE 9 17 5 9 1013.4 - 0.0
22/09:30am 31.2 32.1 16.7 41 9.3 NE 7 15 4 8 1013.5 - 0.0
22/09:00am 29.9 32.4 19.1 52 7.1 NE 4 7 2 4 1013.7 1010.2 11.2
22/08:30am 28.8 31.7 19.1 55 6.4 E 2 4 1 2 1013.8 - 11.2
22/08:00am 28.3 30.6 18.6 55 6.3 NE 4 7 2 4 1013.9 - 11.2
22/07:30am 28.1 29.8 18.4 55 6.3 NE 7 13 4 7 1013.8 - 11.2
22/07:00am 27.3 29.8 19.0 60 5.4 E 4 9 2 5 1014.0 - 11.2
22/06:30am 26.2 29.5 20.7 71 3.7 E 4 6 2 3 1013.7 - 11.2
22/06:00am 26.2 29.7 20.3 70 3.9 NNE 2 6 1 3 1013.2 1009.7 11.2
22/05:30am 25.9 29.2 20.7 73 3.5 N 4 6 2 3 1012.7 - 11.2
22/05:00am 25.8 29.0 20.4 72 3.6 N 4 6 2 3 1012.0 - 11.2
22/04:30am 25.6 29.4 21.0 75 3.1 NNW 2 4 1 2 1011.8 - 11.2
22/04:00am 25.4 29.3 21.2 77 2.8 NNW 2 2 1 1 1012.0 - 11.2
22/03:30am 25.3 29.3 21.3 78 2.7 SW 2 6 1 3 1011.8 - 11.2
22/03:00am 26.1 29.4 19.9 68 4.1 NNW 2 4 1 2 1011.7 1008.3 11.2
22/02:30am 25.8 29.0 19.7 69 4.0 N 2 6 1 3 1011.8 - 11.2
22/02:00am 25.8 28.6 19.6 68 4.1 NE 4 9 2 5 1011.9 - 11.2
22/01:30am 25.8 29.3 20.4 72 3.6 N 2 4 1 2 1011.9 - 11.2
22/01:00am 26.2 30.7 21.5 75 3.2 NW 0 4 0 2 1011.9 - 11.2
22/12:30am 26.4 29.7 19.9 67 4.3 ENE 2 4 1 2 1012.1 - 11.2
22/12:00am 26.8 29.5 18.6 60 5.3 SW 2 6 1 3 1012.4 1009.0 11.2
 
Date/Time
WST
Temp
°C
App
Temp
°C
Dew
Point
Rel
Hum
%
Delta-T
°C
Wind Press
QNH
hPa
Press
MSL
hPa
Rain
since 9 am
mm
Dir
 
Spd
km/h
Gust
km/h
Spd
kts
Gust
kts
21/11:30pm 27.0 28.8 18.2 58 5.7 SE 6 15 3 8 1012.3 - 11.2
21/11:00pm 27.0 28.6 18.3 59 5.6 SSE 7 15 4 8 1012.6 - 11.2
21/10:30pm 27.1 29.1 18.8 60 5.4 S 6 9 3 5 1012.7 - 11.2
21/10:00pm 27.7 29.4 18.1 56 6.2 SSE 6 11 3 6 1013.1 - 11.2
21/09:30pm 27.4 29.7 18.6 58 5.7 S 4 9 2 5 1013.4 - 11.2
21/09:00pm 27.5 29.6 18.9 59 5.6 ESE 6 9 3 5 1013.8 1010.4 11.2
21/08:30pm 27.7 29.6 18.5 57 6.0 SSE 6 9 3 5 1013.5 - 11.2
21/08:00pm 27.9 30.8 19.1 58 5.8 SE 2 9 1 5 1013.1 - 11.2
21/07:30pm 28.1 30.2 18.2 55 6.4 S 4 9 2 5 1012.3 - 11.2
21/07:00pm 28.0 28.8 17.4 52 6.8 WSW 9 17 5 9 1011.1 - 11.2
21/06:30pm 28.5 28.7 17.6 51 7.0 S 13 30 7 16 1010.7 - 11.2
21/06:00pm 27.4 26.4 17.9 56 6.1 S 20 37 11 20 1010.8 1007.3 11.2
21/05:30pm 26.9 29.1 19.6 64 4.8 SSW 7 15 4 8 1011.4 - 11.2
21/05:00pm 26.9 29.6 20.3 67 4.4 S 6 11 3 6 1010.7 - 11.2
21/04:30pm 26.4 28.2 18.7 62 5.0 SW 7 19 4 10 1009.9 - 11.2
21/04:00pm 25.7 26.8 17.9 62 5.0 SSE 9 30 5 16 1010.6 - 10.2
21/03:30pm 30.1 30.7 18.5 49 7.6 N 13 39 7 21 1008.9 - 0.2
21/03:27pm 32.9 33.8 18.3 42 9.6 N 11 28 6 15 1008.8 - 0.0
21/03:00pm 38.1 37.5 11.8 20 16.1 W 6 13 3 7 1008.3 1004.8 0.0
21/02:30pm 39.2 38.2 12.2 20 16.7 SW 9 24 5 13 1008.5 - 0.0
21/02:00pm 39.5 38.9 11.7 19 17.1 E 6 13 3 7 1008.7 - 0.0
21/01:30pm 39.4 37.9 10.7 18 17.4 SE 9 19 5 10 1009.3 - 0.0
21/01:00pm 38.8 37.9 11.2 19 16.8 SSE 7 17 4 9 1009.9 - 0.0
21/12:30pm 38.5 37.6 11.4 19 16.5 S 7 19 4 10 1010.4 - 0.0
21/12:00pm 37.5 37.1 12.3 22 15.5 SSE 6 11 3 6 1010.8 1007.3 0.0
21/11:30am 36.5 37.3 13.6 25 14.3 W 2 4 1 2 1011.3 - 0.0
21/11:00am 36.2 36.0 13.1 25 14.3 SW 6 15 3 8 1011.8 - 0.0
21/10:30am 36.3 36.3 13.5 25 14.2 WSW 6 11 3 6 1012.3 - 0.0
21/10:00am 37.1 36.9 13.6 24 14.7 WSW 7 19 4 10 1012.6 - 0.0
21/09:30am 36.5 35.7 12.8 24 14.6 WSW 9 19 5 10 1012.9 - 0.0
21/09:00am 36.0 35.7 13.2 25 14.1 W 7 15 4 8 1013.0 1009.5 0.0
21/08:30am 34.4 34.8 15.3 31 12.1 W 7 19 4 10 1013.1 - 0.0
21/08:00am 32.1 33.2 16.7 39 9.9 W 6 11 3 6 1013.2 - 0.0
21/07:30am 30.7 31.7 16.4 42 9.1 W 6 15 3 8 1013.0 - 0.0
21/07:00am 30.2 31.1 16.5 43 8.7 W 7 15 4 8 1012.6 - 0.0
21/06:30am 29.9 30.8 16.7 45 8.4 W 7 17 4 9 1012.8 - 0.0
21/06:00am 29.0 30.4 17.3 49 7.5 W 6 11 3 6 1012.9 1009.4 0.0
21/05:30am 28.5 29.9 17.3 50 7.2 WNW 6 13 3 7 1012.7 - 0.0
21/05:00am 28.2 29.3 17.1 51 7.1 NW 7 15 4 8 1012.6 - 0.0
21/04:30am 28.6 29.3 17.0 49 7.4 NW 9 17 5 9 1012.3 - 0.0
21/04:00am 28.8 30.2 17.3 49 7.4 WNW 6 9 3 5 1012.0 - 0.0
21/03:30am 29.0 30.4 17.3 49 7.5 WNW 6 9 3 5 1012.2 - 0.0
21/03:00am 28.4 29.9 17.7 52 6.9 WNW 6 9 3 5 1011.9 1008.5 0.0
21/02:30am 28.3 30.8 18.1 54 6.6 WSW 2 6 1 3 1011.9 - 0.0
21/02:00am 28.7 30.5 17.5 50 7.2 W 4 13 2 7 1011.9 - 0.0
21/01:30am 28.5 30.6 18.0 53 6.8 WSW 4 6 2 3 1012.0 - 0.0
21/01:00am 28.9 31.7 17.9 51 7.1 CALM 0 2 0 1 1012.0 - 0.0
21/12:30am 29.3 31.3 16.9 47 7.9 N 2 4 1 2 1012.0 - 0.0
21/12:00am 29.4 30.8 16.5 45 8.2 N 4 9 2 5 1012.1 1008.7 0.0
 
Date/Time
WST
Temp
°C
App
Temp
°C
Dew
Point
Rel
Hum
%
Delta-T
°C
Wind Press
QNH
hPa
Press
MSL
hPa
Rain
since 9 am
mm
Dir
 
Spd
km/h
Gust
km/h
Spd
kts
Gust
kts
20/11:30pm 29.7 31.0 16.1 43 8.6 N 4 6 2 3 1012.0 - 0.0
20/11:00pm 29.9 30.8 16.0 43 8.8 NW 6 11 3 6 1012.1 - 0.0
20/10:30pm 30.4 31.5 16.6 43 8.8 WNW 6 13 3 7 1012.4 - 0.0
20/10:00pm 30.6 31.7 16.5 42 9.0 N 6 13 3 7 1012.3 - 0.0
20/09:30pm 31.0 31.9 16.0 40 9.5 W 6 13 3 7 1011.6 - 0.0
20/09:00pm 31.1 32.1 16.4 41 9.4 W 6 13 3 7 1011.6 1008.2 0.0
20/08:30pm 31.2 32.9 17.1 42 9.1 W 4 13 2 7 1011.7 - 0.0
20/08:00pm 31.6 32.5 16.2 39 9.8 WSW 6 15 3 8 1011.8 - 0.0
20/07:30pm 32.1 32.2 15.5 36 10.5 WSW 9 17 5 9 1011.1 - 0.0
20/07:00pm 32.2 32.3 15.6 36 10.5 WSW 9 17 5 9 1010.6 - 0.0
20/06:30pm 32.6 32.9 16.0 36 10.6 WSW 9 20 5 11 1010.4 - 0.0
20/06:00pm 33.3 33.4 15.5 34 11.3 WSW 9 24 5 13 1009.9 1006.5 0.0
20/05:30pm 34.0 33.9 15.0 32 12.0 WSW 9 20 5 11 1009.5 - 0.0
20/05:00pm 34.3 33.9 15.2 31 12.1 WSW 11 22 6 12 1009.0 - 0.0
20/04:30pm 34.7 33.2 15.2 31 12.4 W 17 32 9 17 1008.9 - 0.0
20/04:00pm 37.0 36.4 11.7 21 15.4 SW 6 13 3 7 1008.5 - 0.0
20/03:30pm 35.9 34.0 13.1 25 14.1 S 15 26 8 14 1008.4 - 0.0
20/03:00pm 37.7 36.5 12.7 22 15.5 S 11 19 6 10 1008.5 1005.0 0.0
20/02:30pm 40.1 38.5 12.7 19 17.1 S 13 28 7 15 1008.7 - 0.0
20/02:00pm 38.8 38.3 12.8 21 16.2 S 7 19 4 10 1009.0 - 0.0
20/01:30pm 39.6 38.6 12.4 20 16.9 S 9 24 5 13 1009.2 - 0.0
20/01:00pm 39.4 38.6 12.8 20 16.6 S 9 17 5 9 1009.8 - 0.0
20/12:30pm 38.8 38.0 13.0 21 16.1 S 9 19 5 10 1010.5 - 0.0
20/12:00pm 38.5 37.7 13.0 22 15.9 SSE 9 19 5 10 1011.0 1007.5 0.0
20/11:30am 39.1 39.1 13.7 22 16.0 SW 6 17 3 9 1011.6 - 0.0
20/11:00am 37.7 37.7 13.6 23 15.1 W 6 19 3 10 1012.0 - 0.0
20/10:30am 37.2 37.5 14.4 25 14.4 S 6 22 3 12 1012.6 - 0.0
20/10:00am 36.4 36.1 14.3 26 13.9 S 9 19 5 10 1013.0 - 0.0
20/09:30am 36.4 36.0 15.2 28 13.5 SSW 11 20 6 11 1013.3 - 0.0
20/09:00am 35.0 35.6 15.8 31 12.3 SSW 7 17 4 9 1013.7 1010.2 0.0
20/08:30am 33.6 34.2 15.7 34 11.4 SW 7 17 4 9 1013.8 - 0.0
20/08:00am 33.7 33.8 15.6 33 11.5 SW 9 19 5 10 1013.8 - 0.0
20/07:30am 32.1 32.6 15.5 36 10.5 WSW 7 15 4 8 1013.8 - 0.0
20/07:00am 30.4 31.4 16.4 43 8.9 SW 6 11 3 6 1013.6 - 0.0
20/06:30am 29.0 30.9 17.7 50 7.3 SW 4 9 2 5 1013.6 - 0.0
20/06:00am 27.4 29.8 18.8 59 5.6 SSW 4 7 2 4 1013.4 1009.9 0.0
20/05:30am 26.0 28.9 19.1 65 4.5 W 2 4 1 2 1013.0 - 0.0
20/05:00am 24.9 27.9 19.2 70 3.7 SW 2 4 1 2 1012.6 - 0.0
20/04:30am 24.7 27.7 19.2 71 3.6 S 2 4 1 2 1012.3 - 0.0
20/04:00am 24.4 26.8 19.7 75 3.1 S 6 9 3 5 1012.1 - 0.0
20/03:30am 25.4 28.0 18.4 65 4.5 N 2 6 1 3 1011.6 - 0.0
20/03:00am 25.7 28.3 18.4 64 4.7 W 2 4 1 2 1011.3 1007.8 0.0
20/02:30am 25.9 28.5 18.5 63 4.8 W 2 4 1 2 1011.2 - 0.0
20/02:00am 26.1 28.6 18.2 61 5.1 W 2 4 1 2 1011.4 - 0.0
20/01:30am 26.4 28.5 18.0 60 5.4 WSW 4 9 2 5 1011.5 - 0.0
20/01:00am 27.2 29.0 17.5 55 6.2 WSW 4 7 2 4 1011.7 - 0.0
20/12:30am 28.0 29.0 16.8 50 7.1 W 7 15 4 8 1012.0 - 0.0
20/12:00am 28.1 29.4 17.1 51 7.0 W 6 13 3 7 1011.9 1008.5 0.0
 
Date/Time
WST
Temp
°C
App
Temp
°C
Dew
Point
Rel
Hum
%
Delta-T
°C
Wind Press
QNH
hPa
Press
MSL
hPa
Rain
since 9 am
mm
Dir
 
Spd
km/h
Gust
km/h
Spd
kts
Gust
kts
19/11:30pm 28.6 29.7 17.0 49 7.4 W 7 13 4 7 1012.1 - 0.0

Other Formats:

Comma delimited format used in spreadsheet applications
http://www.bom.gov.au/fwo/IDW60801/IDW60801.94212.axf

JavaScript Object Notation format (JSON) in row-major order
http://www.bom.gov.au/fwo/IDW60801/IDW60801.94212.json